sensor_id;sensor_type;location;lat;lon;timestamp;temperature;humidity
9951;DHT22;24074;49.254;6.702;2023-12-14T00:01:12;8.10;99.90
9951;DHT22;24074;49.254;6.702;2023-12-14T00:03:39;8.00;99.90
9951;DHT22;24074;49.254;6.702;2023-12-14T00:06:07;8.00;99.90
9951;DHT22;24074;49.254;6.702;2023-12-14T00:08:33;7.90;99.90
9951;DHT22;24074;49.254;6.702;2023-12-14T00:11:04;7.80;99.90
9951;DHT22;24074;49.254;6.702;2023-12-14T00:13:32;7.90;99.90
9951;DHT22;24074;49.254;6.702;2023-12-14T00:15:57;7.90;99.90
9951;DHT22;24074;49.254;6.702;2023-12-14T00:18:23;7.90;99.90
9951;DHT22;24074;49.254;6.702;2023-12-14T00:20:48;7.90;99.90
9951;DHT22;24074;49.254;6.702;2023-12-14T00:23:14;7.90;99.90
9951;DHT22;24074;49.254;6.702;2023-12-14T00:25:40;7.90;99.90
9951;DHT22;24074;49.254;6.702;2023-12-14T00:28:05;7.90;99.90
9951;DHT22;24074;49.254;6.702;2023-12-14T00:30:31;8.00;99.90
9951;DHT22;24074;49.254;6.702;2023-12-14T00:32:56;8.00;99.90
9951;DHT22;24074;49.254;6.702;2023-12-14T00:35:22;8.00;99.90
9951;DHT22;24074;49.254;6.702;2023-12-14T00:37:47;8.00;99.90
9951;DHT22;24074;49.254;6.702;2023-12-14T00:40:13;8.00;99.90
9951;DHT22;24074;49.254;6.702;2023-12-14T00:42:39;8.10;99.90
9951;DHT22;24074;49.254;6.702;2023-12-14T00:45:04;8.10;99.90
9951;DHT22;24074;49.254;6.702;2023-12-14T00:47:30;8.10;99.90
9951;DHT22;24074;49.254;6.702;2023-12-14T00:49:55;8.10;99.90
9951;DHT22;24074;49.254;6.702;2023-12-14T00:52:21;8.10;99.90
9951;DHT22;24074;49.254;6.702;2023-12-14T00:54:47;8.00;99.90
9951;DHT22;24074;49.254;6.702;2023-12-14T00:57:12;8.00;99.90
9951;DHT22;24074;49.254;6.702;2023-12-14T00:59:38;8.00;99.90
9951;DHT22;24074;49.254;6.702;2023-12-14T01:02:03;8.00;99.90
9951;DHT22;24074;49.254;6.702;2023-12-14T01:04:29;8.10;99.90
9951;DHT22;24074;49.254;6.702;2023-12-14T01:06:55;8.10;99.90
9951;DHT22;24074;49.254;6.702;2023-12-14T01:09:20;8.10;99.90
9951;DHT22;24074;49.254;6.702;2023-12-14T01:11:46;8.10;99.90
9951;DHT22;24074;49.254;6.702;2023-12-14T01:14:14;8.00;99.90
9951;DHT22;24074;49.254;6.702;2023-12-14T01:16:39;8.00;99.90
9951;DHT22;24074;49.254;6.702;2023-12-14T01:19:05;7.90;99.90
9951;DHT22;24074;49.254;6.702;2023-12-14T01:21:31;7.90;99.90
9951;DHT22;24074;49.254;6.702;2023-12-14T01:23:57;7.90;99.90
9951;DHT22;24074;49.254;6.702;2023-12-14T01:26:23;7.80;99.90
9951;DHT22;24074;49.254;6.702;2023-12-14T01:28:48;8.00;99.90
9951;DHT22;24074;49.254;6.702;2023-12-14T01:31:14;8.00;99.90
9951;DHT22;24074;49.254;6.702;2023-12-14T01:33:42;8.00;99.90
9951;DHT22;24074;49.254;6.702;2023-12-14T01:36:08;8.10;99.90
9951;DHT22;24074;49.254;6.702;2023-12-14T01:38:33;8.00;99.90
9951;DHT22;24074;49.254;6.702;2023-12-14T01:40:59;8.00;99.90
9951;DHT22;24074;49.254;6.702;2023-12-14T01:43:25;8.00;99.90
9951;DHT22;24074;49.254;6.702;2023-12-14T01:45:50;7.90;99.90
9951;DHT22;24074;49.254;6.702;2023-12-14T01:48:16;7.80;99.90
9951;DHT22;24074;49.254;6.702;2023-12-14T01:50:42;7.80;99.90
9951;DHT22;24074;49.254;6.702;2023-12-14T01:53:07;7.80;99.90
9951;DHT22;24074;49.254;6.702;2023-12-14T01:55:33;7.90;99.90
9951;DHT22;24074;49.254;6.702;2023-12-14T01:57:59;7.90;99.90
9951;DHT22;24074;49.254;6.702;2023-12-14T02:00:36;7.90;99.90
9951;DHT22;24074;49.254;6.702;2023-12-14T02:03:03;7.90;99.90
9951;DHT22;24074;49.254;6.702;2023-12-14T02:05:29;7.90;99.90
9951;DHT22;24074;49.254;6.702;2023-12-14T02:07:54;7.90;99.90
9951;DHT22;24074;49.254;6.702;2023-12-14T02:10:20;7.90;99.90
9951;DHT22;24074;49.254;6.702;2023-12-14T02:12:45;7.80;99.90
9951;DHT22;24074;49.254;6.702;2023-12-14T02:15:11;7.80;99.90
9951;DHT22;24074;49.254;6.702;2023-12-14T02:17:37;7.80;99.90
9951;DHT22;24074;49.254;6.702;2023-12-14T02:20:03;7.80;99.90
9951;DHT22;24074;49.254;6.702;2023-12-14T02:22:48;7.80;99.90
9951;DHT22;24074;49.254;6.702;2023-12-14T02:25:16;7.70;99.90
9951;DHT22;24074;49.254;6.702;2023-12-14T02:27:41;7.70;99.90
9951;DHT22;24074;49.254;6.702;2023-12-14T02:30:08;7.70;99.90
9951;DHT22;24074;49.254;6.702;2023-12-14T02:32:33;7.70;99.90
9951;DHT22;24074;49.254;6.702;2023-12-14T02:34:59;7.60;99.90
9951;DHT22;24074;49.254;6.702;2023-12-14T02:37:24;7.60;99.90
9951;DHT22;24074;49.254;6.702;2023-12-14T02:39:50;7.50;99.90
9951;DHT22;24074;49.254;6.702;2023-12-14T02:42:16;7.60;99.90
9951;DHT22;24074;49.254;6.702;2023-12-14T02:44:41;7.60;99.90
9951;DHT22;24074;49.254;6.702;2023-12-14T02:47:07;7.50;99.90
9951;DHT22;24074;49.254;6.702;2023-12-14T02:49:32;7.50;99.90
9951;DHT22;24074;49.254;6.702;2023-12-14T02:51:59;7.50;99.90
9951;DHT22;24074;49.254;6.702;2023-12-14T02:54:24;7.60;99.90
9951;DHT22;24074;49.254;6.702;2023-12-14T02:56:50;7.60;99.90
9951;DHT22;24074;49.254;6.702;2023-12-14T02:59:15;7.60;99.90
9951;DHT22;24074;49.254;6.702;2023-12-14T03:01:41;7.60;99.90
9951;DHT22;24074;49.254;6.702;2023-12-14T03:04:07;7.60;99.90
9951;DHT22;24074;49.254;6.702;2023-12-14T03:06:33;7.60;99.90
9951;DHT22;24074;49.254;6.702;2023-12-14T03:08:59;7.60;99.90
9951;DHT22;24074;49.254;6.702;2023-12-14T03:11:25;7.60;99.90
9951;DHT22;24074;49.254;6.702;2023-12-14T03:13:51;7.60;99.90
9951;DHT22;24074;49.254;6.702;2023-12-14T03:16:18;7.50;99.90
9951;DHT22;24074;49.254;6.702;2023-12-14T03:18:44;7.50;99.90
9951;DHT22;24074;49.254;6.702;2023-12-14T03:21:10;7.50;99.90
9951;DHT22;24074;49.254;6.702;2023-12-14T03:23:35;7.60;99.90
9951;DHT22;24074;49.254;6.702;2023-12-14T03:26:01;7.60;99.90
9951;DHT22;24074;49.254;6.702;2023-12-14T03:28:27;7.60;99.90
9951;DHT22;24074;49.254;6.702;2023-12-14T03:30:53;7.60;99.90
9951;DHT22;24074;49.254;6.702;2023-12-14T03:33:19;7.60;99.90
9951;DHT22;24074;49.254;6.702;2023-12-14T03:35:45;7.60;99.90
9951;DHT22;24074;49.254;6.702;2023-12-14T03:38:13;7.60;99.90
9951;DHT22;24074;49.254;6.702;2023-12-14T03:40:39;7.60;99.90
9951;DHT22;24074;49.254;6.702;2023-12-14T03:43:04;7.60;99.90
9951;DHT22;24074;49.254;6.702;2023-12-14T03:45:30;7.60;99.90
9951;DHT22;24074;49.254;6.702;2023-12-14T03:47:56;7.60;99.90
9951;DHT22;24074;49.254;6.702;2023-12-14T03:50:22;7.60;99.90
9951;DHT22;24074;49.254;6.702;2023-12-14T03:52:47;7.60;99.90
9951;DHT22;24074;49.254;6.702;2023-12-14T03:55:13;7.60;99.90
9951;DHT22;24074;49.254;6.702;2023-12-14T03:57:40;7.60;99.90
9951;DHT22;24074;49.254;6.702;2023-12-14T04:00:13;7.60;99.90
9951;DHT22;24074;49.254;6.702;2023-12-14T04:02:40;7.60;99.90
9951;DHT22;24074;49.254;6.702;2023-12-14T04:05:09;7.60;99.90
9951;DHT22;24074;49.254;6.702;2023-12-14T04:07:38;7.60;99.90
9951;DHT22;24074;49.254;6.702;2023-12-14T04:10:15;7.60;99.90
9951;DHT22;24074;49.254;6.702;2023-12-14T04:12:41;7.60;99.90
9951;DHT22;24074;49.254;6.702;2023-12-14T04:15:08;7.60;99.90
9951;DHT22;24074;49.254;6.702;2023-12-14T04:17:34;7.60;99.90
9951;DHT22;24074;49.254;6.702;2023-12-14T04:20:00;7.60;99.90
9951;DHT22;24074;49.254;6.702;2023-12-14T04:22:26;7.60;99.90
9951;DHT22;24074;49.254;6.702;2023-12-14T04:24:52;7.60;99.90
9951;DHT22;24074;49.254;6.702;2023-12-14T04:27:18;7.60;99.90
9951;DHT22;24074;49.254;6.702;2023-12-14T04:29:44;7.50;99.90
9951;DHT22;24074;49.254;6.702;2023-12-14T04:32:10;7.50;99.90
9951;DHT22;24074;49.254;6.702;2023-12-14T04:34:36;7.50;99.90
9951;DHT22;24074;49.254;6.702;2023-12-14T04:37:02;7.40;99.90
9951;DHT22;24074;49.254;6.702;2023-12-14T04:39:27;7.40;99.90
9951;DHT22;24074;49.254;6.702;2023-12-14T04:41:53;7.40;99.90
9951;DHT22;24074;49.254;6.702;2023-12-14T04:44:20;7.40;99.90
9951;DHT22;24074;49.254;6.702;2023-12-14T04:46:47;7.40;99.90
9951;DHT22;24074;49.254;6.702;2023-12-14T04:49:12;7.30;99.90
9951;DHT22;24074;49.254;6.702;2023-12-14T04:51:38;7.30;99.90
9951;DHT22;24074;49.254;6.702;2023-12-14T04:54:04;7.20;99.90
9951;DHT22;24074;49.254;6.702;2023-12-14T04:56:29;7.10;99.90
9951;DHT22;24074;49.254;6.702;2023-12-14T04:58:55;7.10;99.90
9951;DHT22;24074;49.254;6.702;2023-12-14T05:01:21;7.00;99.90
9951;DHT22;24074;49.254;6.702;2023-12-14T05:03:46;6.90;99.90
9951;DHT22;24074;49.254;6.702;2023-12-14T05:06:12;6.90;99.90
9951;DHT22;24074;49.254;6.702;2023-12-14T05:08:38;6.80;99.90
9951;DHT22;24074;49.254;6.702;2023-12-14T05:11:04;6.70;99.90
9951;DHT22;24074;49.254;6.702;2023-12-14T05:13:30;6.70;99.90
9951;DHT22;24074;49.254;6.702;2023-12-14T05:15:55;6.60;99.90
9951;DHT22;24074;49.254;6.702;2023-12-14T05:18:23;6.70;99.90
9951;DHT22;24074;49.254;6.702;2023-12-14T05:20:48;6.70;99.90
9951;DHT22;24074;49.254;6.702;2023-12-14T05:23:14;6.70;99.90
9951;DHT22;24074;49.254;6.702;2023-12-14T05:25:40;6.80;99.90
9951;DHT22;24074;49.254;6.702;2023-12-14T05:28:05;6.90;99.90
9951;DHT22;24074;49.254;6.702;2023-12-14T05:30:31;6.90;99.90
9951;DHT22;24074;49.254;6.702;2023-12-14T05:32:57;6.90;99.90
9951;DHT22;24074;49.254;6.702;2023-12-14T05:35:22;6.90;99.90
9951;DHT22;24074;49.254;6.702;2023-12-14T05:37:48;7.00;99.90
9951;DHT22;24074;49.254;6.702;2023-12-14T05:40:14;7.00;99.90
9951;DHT22;24074;49.254;6.702;2023-12-14T05:42:40;7.00;99.90
9951;DHT22;24074;49.254;6.702;2023-12-14T05:45:06;7.00;99.90
9951;DHT22;24074;49.254;6.702;2023-12-14T05:47:32;6.90;99.90
9951;DHT22;24074;49.254;6.702;2023-12-14T05:49:59;6.80;99.90
9951;DHT22;24074;49.254;6.702;2023-12-14T05:52:25;7.00;99.90
9951;DHT22;24074;49.254;6.702;2023-12-14T05:54:51;6.90;99.90
9951;DHT22;24074;49.254;6.702;2023-12-14T05:57:16;6.80;99.90
9951;DHT22;24074;49.254;6.702;2023-12-14T05:59:42;6.90;99.90
9951;DHT22;24074;49.254;6.702;2023-12-14T06:02:07;6.90;99.90
9951;DHT22;24074;49.254;6.702;2023-12-14T06:04:33;6.90;99.90
9951;DHT22;24074;49.254;6.702;2023-12-14T06:06:59;7.00;99.90
9951;DHT22;24074;49.254;6.702;2023-12-14T06:09:25;7.00;99.90
9951;DHT22;24074;49.254;6.702;2023-12-14T06:12:02;6.90;99.90
9951;DHT22;24074;49.254;6.702;2023-12-14T06:14:28;7.00;99.90
9951;DHT22;24074;49.254;6.702;2023-12-14T06:16:54;7.00;99.90
9951;DHT22;24074;49.254;6.702;2023-12-14T06:19:20;6.90;99.90
9951;DHT22;24074;49.254;6.702;2023-12-14T06:21:47;6.90;99.90
9951;DHT22;24074;49.254;6.702;2023-12-14T06:24:13;6.90;99.90
9951;DHT22;24074;49.254;6.702;2023-12-14T06:26:42;7.00;99.90
9951;DHT22;24074;49.254;6.702;2023-12-14T06:29:09;7.00;99.90
9951;DHT22;24074;49.254;6.702;2023-12-14T06:31:35;7.00;99.90
9951;DHT22;24074;49.254;6.702;2023-12-14T06:34:01;7.00;99.90
9951;DHT22;24074;49.254;6.702;2023-12-14T06:36:30;7.00;99.90
9951;DHT22;24074;49.254;6.702;2023-12-14T06:38:56;7.00;99.90
9951;DHT22;24074;49.254;6.702;2023-12-14T06:41:22;7.00;99.90
9951;DHT22;24074;49.254;6.702;2023-12-14T06:43:48;7.00;99.90
9951;DHT22;24074;49.254;6.702;2023-12-14T06:46:14;7.10;99.90
9951;DHT22;24074;49.254;6.702;2023-12-14T06:48:40;7.00;99.90
9951;DHT22;24074;49.254;6.702;2023-12-14T06:51:06;7.00;99.90
9951;DHT22;24074;49.254;6.702;2023-12-14T06:53:31;7.00;99.90
9951;DHT22;24074;49.254;6.702;2023-12-14T06:55:57;7.00;99.90
9951;DHT22;24074;49.254;6.702;2023-12-14T06:58:22;7.10;99.90
9951;DHT22;24074;49.254;6.702;2023-12-14T07:00:48;7.00;99.90
9951;DHT22;24074;49.254;6.702;2023-12-14T07:03:13;7.00;99.90
9951;DHT22;24074;49.254;6.702;2023-12-14T07:05:39;7.00;99.90
9951;DHT22;24074;49.254;6.702;2023-12-14T07:08:05;7.00;99.90
9951;DHT22;24074;49.254;6.702;2023-12-14T07:10:31;7.00;99.90
9951;DHT22;24074;49.254;6.702;2023-12-14T07:12:56;6.90;99.90
9951;DHT22;24074;49.254;6.702;2023-12-14T07:15:25;6.90;99.90
9951;DHT22;24074;49.254;6.702;2023-12-14T07:17:51;7.00;99.90
9951;DHT22;24074;49.254;6.702;2023-12-14T07:20:19;7.00;99.90
9951;DHT22;24074;49.254;6.702;2023-12-14T07:22:44;7.00;99.90
9951;DHT22;24074;49.254;6.702;2023-12-14T07:25:10;7.00;99.90
9951;DHT22;24074;49.254;6.702;2023-12-14T07:27:35;7.00;99.90
9951;DHT22;24074;49.254;6.702;2023-12-14T07:30:01;7.10;99.90
9951;DHT22;24074;49.254;6.702;2023-12-14T07:32:27;7.10;99.90
9951;DHT22;24074;49.254;6.702;2023-12-14T07:34:52;7.10;99.90
9951;DHT22;24074;49.254;6.702;2023-12-14T07:37:18;7.10;99.90
9951;DHT22;24074;49.254;6.702;2023-12-14T07:39:47;7.10;99.90
9951;DHT22;24074;49.254;6.702;2023-12-14T07:42:12;7.10;99.90
9951;DHT22;24074;49.254;6.702;2023-12-14T07:44:42;7.00;99.90
9951;DHT22;24074;49.254;6.702;2023-12-14T07:47:08;7.00;99.90
9951;DHT22;24074;49.254;6.702;2023-12-14T07:49:33;7.10;99.90
9951;DHT22;24074;49.254;6.702;2023-12-14T07:51:59;7.00;99.90
9951;DHT22;24074;49.254;6.702;2023-12-14T07:54:24;7.00;99.90
9951;DHT22;24074;49.254;6.702;2023-12-14T07:56:52;7.00;99.90
9951;DHT22;24074;49.254;6.702;2023-12-14T07:59:17;7.10;99.90
9951;DHT22;24074;49.254;6.702;2023-12-14T08:01:43;7.10;99.90
9951;DHT22;24074;49.254;6.702;2023-12-14T08:04:08;7.20;99.90
9951;DHT22;24074;49.254;6.702;2023-12-14T08:06:36;7.20;99.90
9951;DHT22;24074;49.254;6.702;2023-12-14T08:09:06;7.20;99.90
9951;DHT22;24074;49.254;6.702;2023-12-14T08:11:32;7.20;99.90
9951;DHT22;24074;49.254;6.702;2023-12-14T08:13:58;7.30;99.90
9951;DHT22;24074;49.254;6.702;2023-12-14T08:16:23;7.30;99.90
9951;DHT22;24074;49.254;6.702;2023-12-14T08:18:49;7.40;99.90
9951;DHT22;24074;49.254;6.702;2023-12-14T08:21:15;7.40;99.90
9951;DHT22;24074;49.254;6.702;2023-12-14T08:23:42;7.40;99.90
9951;DHT22;24074;49.254;6.702;2023-12-14T08:26:07;7.40;99.90
9951;DHT22;24074;49.254;6.702;2023-12-14T08:28:35;7.40;99.90
9951;DHT22;24074;49.254;6.702;2023-12-14T08:31:01;7.40;99.90
9951;DHT22;24074;49.254;6.702;2023-12-14T08:33:28;7.50;99.90
9951;DHT22;24074;49.254;6.702;2023-12-14T08:35:55;7.50;99.90
9951;DHT22;24074;49.254;6.702;2023-12-14T08:38:20;7.50;99.90
9951;DHT22;24074;49.254;6.702;2023-12-14T08:40:46;7.60;99.90
9951;DHT22;24074;49.254;6.702;2023-12-14T08:43:12;7.60;99.90
9951;DHT22;24074;49.254;6.702;2023-12-14T08:45:37;7.60;99.90
9951;DHT22;24074;49.254;6.702;2023-12-14T08:48:03;7.70;99.90
9951;DHT22;24074;49.254;6.702;2023-12-14T08:50:29;7.70;99.90
9951;DHT22;24074;49.254;6.702;2023-12-14T08:52:54;7.80;99.90
9951;DHT22;24074;49.254;6.702;2023-12-14T08:55:20;7.80;99.90
9951;DHT22;24074;49.254;6.702;2023-12-14T08:57:47;7.90;99.90
9951;DHT22;24074;49.254;6.702;2023-12-14T09:00:13;7.90;99.90
9951;DHT22;24074;49.254;6.702;2023-12-14T09:02:38;7.90;99.90
9951;DHT22;24074;49.254;6.702;2023-12-14T09:05:04;7.90;99.90
9951;DHT22;24074;49.254;6.702;2023-12-14T09:07:31;7.90;99.90
9951;DHT22;24074;49.254;6.702;2023-12-14T09:09:56;8.00;99.90
9951;DHT22;24074;49.254;6.702;2023-12-14T09:12:22;8.10;99.90
9951;DHT22;24074;49.254;6.702;2023-12-14T09:14:48;8.20;99.90
9951;DHT22;24074;49.254;6.702;2023-12-14T09:17:13;8.40;99.90
9951;DHT22;24074;49.254;6.702;2023-12-14T09:19:39;8.40;99.90
9951;DHT22;24074;49.254;6.702;2023-12-14T09:22:04;8.60;99.90
9951;DHT22;24074;49.254;6.702;2023-12-14T09:24:30;8.70;99.90
9951;DHT22;24074;49.254;6.702;2023-12-14T09:26:56;8.90;99.90
9951;DHT22;24074;49.254;6.702;2023-12-14T09:29:21;9.20;99.90
9951;DHT22;24074;49.254;6.702;2023-12-14T09:31:47;9.30;99.90
9951;DHT22;24074;49.254;6.702;2023-12-14T09:34:13;9.40;99.90
9951;DHT22;24074;49.254;6.702;2023-12-14T09:36:39;9.60;99.90
9951;DHT22;24074;49.254;6.702;2023-12-14T09:39:05;10.20;99.90
9951;DHT22;24074;49.254;6.702;2023-12-14T09:41:34;10.30;99.90
9951;DHT22;24074;49.254;6.702;2023-12-14T09:43:59;10.30;99.90
9951;DHT22;24074;49.254;6.702;2023-12-14T09:46:27;10.30;99.90
9951;DHT22;24074;49.254;6.702;2023-12-14T09:48:54;10.20;99.90
9951;DHT22;24074;49.254;6.702;2023-12-14T09:51:20;9.90;99.90
9951;DHT22;24074;49.254;6.702;2023-12-14T09:53:49;9.70;99.90
9951;DHT22;24074;49.254;6.702;2023-12-14T09:56:14;9.80;99.90
9951;DHT22;24074;49.254;6.702;2023-12-14T09:58:40;9.70;99.90
9951;DHT22;24074;49.254;6.702;2023-12-14T10:03:48;9.70;99.90
9951;DHT22;24074;49.254;6.702;2023-12-14T10:06:13;9.90;99.90
9951;DHT22;24074;49.254;6.702;2023-12-14T10:08:39;9.90;99.90
9951;DHT22;24074;49.254;6.702;2023-12-14T10:11:15;9.80;99.90
9951;DHT22;24074;49.254;6.702;2023-12-14T10:13:40;9.70;99.90
9951;DHT22;24074;49.254;6.702;2023-12-14T10:16:07;9.70;99.90
9951;DHT22;24074;49.254;6.702;2023-12-14T10:18:33;9.70;99.90
9951;DHT22;24074;49.254;6.702;2023-12-14T10:21:02;9.80;99.90
9951;DHT22;24074;49.254;6.702;2023-12-14T10:23:28;10.10;99.90
9951;DHT22;24074;49.254;6.702;2023-12-14T10:25:54;10.20;99.90
9951;DHT22;24074;49.254;6.702;2023-12-14T10:28:20;10.80;99.90
9951;DHT22;24074;49.254;6.702;2023-12-14T10:30:47;11.90;99.90
9951;DHT22;24074;49.254;6.702;2023-12-14T10:33:12;14.50;99.90
9951;DHT22;24074;49.254;6.702;2023-12-14T10:35:39;15.70;99.90
9951;DHT22;24074;49.254;6.702;2023-12-14T10:38:07;15.30;99.90
9951;DHT22;24074;49.254;6.702;2023-12-14T10:40:35;15.20;99.90
9951;DHT22;24074;49.254;6.702;2023-12-14T10:43:09;14.90;99.90
9951;DHT22;24074;49.254;6.702;2023-12-14T10:45:36;13.70;99.90
9951;DHT22;24074;49.254;6.702;2023-12-14T10:48:04;12.50;99.90
9951;DHT22;24074;49.254;6.702;2023-12-14T10:50:30;12.10;99.90
9951;DHT22;24074;49.254;6.702;2023-12-14T10:52:59;12.10;99.90
9951;DHT22;24074;49.254;6.702;2023-12-14T10:55:36;14.00;99.90
9951;DHT22;24074;49.254;6.702;2023-12-14T10:58:03;16.60;99.90
9951;DHT22;24074;49.254;6.702;2023-12-14T11:00:33;18.60;99.90
9951;DHT22;24074;49.254;6.702;2023-12-14T11:03:00;18.60;99.90
9951;DHT22;24074;49.254;6.702;2023-12-14T11:05:27;17.80;99.90
9951;DHT22;24074;49.254;6.702;2023-12-14T11:07:59;16.80;99.90
9951;DHT22;24074;49.254;6.702;2023-12-14T11:10:43;15.20;99.90
9951;DHT22;24074;49.254;6.702;2023-12-14T11:13:18;14.00;99.90
9951;DHT22;24074;49.254;6.702;2023-12-14T11:15:49;13.30;99.90
9951;DHT22;24074;49.254;6.702;2023-12-14T11:21:00;16.60;99.90
9951;DHT22;24074;49.254;6.702;2023-12-14T11:25:58;16.10;99.90
9951;DHT22;24074;49.254;6.702;2023-12-14T11:28:24;14.20;99.90
9951;DHT22;24074;49.254;6.702;2023-12-14T11:30:50;12.80;99.90
9951;DHT22;24074;49.254;6.702;2023-12-14T11:33:16;12.00;99.90
9951;DHT22;24074;49.254;6.702;2023-12-14T11:35:42;11.30;99.90
9951;DHT22;24074;49.254;6.702;2023-12-14T11:38:07;11.20;99.90
9951;DHT22;24074;49.254;6.702;2023-12-14T11:40:39;11.10;99.90
9951;DHT22;24074;49.254;6.702;2023-12-14T11:43:05;10.80;99.90
9951;DHT22;24074;49.254;6.702;2023-12-14T11:45:37;10.90;99.90
9951;DHT22;24074;49.254;6.702;2023-12-14T11:48:12;11.00;99.90
9951;DHT22;24074;49.254;6.702;2023-12-14T11:50:39;10.80;99.90
9951;DHT22;24074;49.254;6.702;2023-12-14T11:53:05;10.70;99.90
9951;DHT22;24074;49.254;6.702;2023-12-14T11:55:31;10.40;99.90
9951;DHT22;24074;49.254;6.702;2023-12-14T11:57:57;10.10;99.90
9951;DHT22;24074;49.254;6.702;2023-12-14T12:00:28;9.80;99.90
9951;DHT22;24074;49.254;6.702;2023-12-14T12:03:17;9.50;99.90
9951;DHT22;24074;49.254;6.702;2023-12-14T12:05:44;9.50;99.90
9951;DHT22;24074;49.254;6.702;2023-12-14T12:08:16;9.60;99.90
9951;DHT22;24074;49.254;6.702;2023-12-14T12:10:44;9.60;99.90
9951;DHT22;24074;49.254;6.702;2023-12-14T12:13:20;9.40;99.90
9951;DHT22;24074;49.254;6.702;2023-12-14T12:15:46;9.50;99.90
9951;DHT22;24074;49.254;6.702;2023-12-14T12:18:14;9.40;99.90
9951;DHT22;24074;49.254;6.702;2023-12-14T12:20:40;9.30;99.90
9951;DHT22;24074;49.254;6.702;2023-12-14T12:23:06;9.20;99.90
9951;DHT22;24074;49.254;6.702;2023-12-14T12:25:32;9.10;99.90
9951;DHT22;24074;49.254;6.702;2023-12-14T12:27:59;9.10;99.90
9951;DHT22;24074;49.254;6.702;2023-12-14T12:30:25;9.20;99.90
9951;DHT22;24074;49.254;6.702;2023-12-14T12:32:51;9.40;99.90
9951;DHT22;24074;49.254;6.702;2023-12-14T12:35:18;9.60;99.90
9951;DHT22;24074;49.254;6.702;2023-12-14T12:37:44;9.80;99.90
9951;DHT22;24074;49.254;6.702;2023-12-14T12:40:10;9.70;99.90
9951;DHT22;24074;49.254;6.702;2023-12-14T12:42:36;9.60;99.90
9951;DHT22;24074;49.254;6.702;2023-12-14T12:45:01;9.50;99.90
9951;DHT22;24074;49.254;6.702;2023-12-14T12:47:27;9.30;99.90
9951;DHT22;24074;49.254;6.702;2023-12-14T12:49:53;9.30;99.90
9951;DHT22;24074;49.254;6.702;2023-12-14T12:52:18;9.30;99.90
9951;DHT22;24074;49.254;6.702;2023-12-14T12:54:44;9.40;99.90
9951;DHT22;24074;49.254;6.702;2023-12-14T12:57:09;9.50;99.90
9951;DHT22;24074;49.254;6.702;2023-12-14T12:59:35;9.70;99.90
9951;DHT22;24074;49.254;6.702;2023-12-14T13:02:01;9.80;99.90
9951;DHT22;24074;49.254;6.702;2023-12-14T13:04:27;9.80;99.90
9951;DHT22;24074;49.254;6.702;2023-12-14T13:06:56;9.80;99.90
9951;DHT22;24074;49.254;6.702;2023-12-14T13:09:22;9.80;99.90
9951;DHT22;24074;49.254;6.702;2023-12-14T13:11:48;9.70;99.90
9951;DHT22;24074;49.254;6.702;2023-12-14T13:14:15;9.50;99.90
9951;DHT22;24074;49.254;6.702;2023-12-14T13:16:41;9.30;99.90
9951;DHT22;24074;49.254;6.702;2023-12-14T13:19:07;9.10;99.90
9951;DHT22;24074;49.254;6.702;2023-12-14T13:21:33;8.90;99.90
9951;DHT22;24074;49.254;6.702;2023-12-14T13:24:02;8.90;99.90
9951;DHT22;24074;49.254;6.702;2023-12-14T13:26:28;8.80;99.90
9951;DHT22;24074;49.254;6.702;2023-12-14T13:28:54;8.80;99.90
9951;DHT22;24074;49.254;6.702;2023-12-14T13:31:20;8.70;99.90
9951;DHT22;24074;49.254;6.702;2023-12-14T13:33:46;8.60;99.90
9951;DHT22;24074;49.254;6.702;2023-12-14T13:36:12;8.50;99.90
9951;DHT22;24074;49.254;6.702;2023-12-14T13:38:38;8.40;99.90
9951;DHT22;24074;49.254;6.702;2023-12-14T13:41:03;8.30;99.90
9951;DHT22;24074;49.254;6.702;2023-12-14T13:43:29;8.20;99.90
9951;DHT22;24074;49.254;6.702;2023-12-14T13:45:55;8.10;99.90
9951;DHT22;24074;49.254;6.702;2023-12-14T13:48:24;8.00;99.90
9951;DHT22;24074;49.254;6.702;2023-12-14T13:50:54;8.10;99.90
9951;DHT22;24074;49.254;6.702;2023-12-14T13:53:19;8.10;99.90
9951;DHT22;24074;49.254;6.702;2023-12-14T13:55:45;8.10;99.90
9951;DHT22;24074;49.254;6.702;2023-12-14T13:58:12;8.10;99.90
9951;DHT22;24074;49.254;6.702;2023-12-14T14:00:37;8.10;99.90
9951;DHT22;24074;49.254;6.702;2023-12-14T14:03:04;8.00;99.90
9951;DHT22;24074;49.254;6.702;2023-12-14T14:05:31;7.90;99.90
9951;DHT22;24074;49.254;6.702;2023-12-14T14:07:56;7.90;99.90
9951;DHT22;24074;49.254;6.702;2023-12-14T14:10:22;7.90;99.90
9951;DHT22;24074;49.254;6.702;2023-12-14T14:12:48;7.80;99.90
9951;DHT22;24074;49.254;6.702;2023-12-14T14:15:14;7.80;99.90
9951;DHT22;24074;49.254;6.702;2023-12-14T14:17:40;7.70;99.90
9951;DHT22;24074;49.254;6.702;2023-12-14T14:20:06;7.80;99.90
9951;DHT22;24074;49.254;6.702;2023-12-14T14:22:32;7.70;99.90
9951;DHT22;24074;49.254;6.702;2023-12-14T14:24:59;7.70;99.90
9951;DHT22;24074;49.254;6.702;2023-12-14T14:27:25;7.70;99.90
9951;DHT22;24074;49.254;6.702;2023-12-14T14:29:51;7.70;99.90
9951;DHT22;24074;49.254;6.702;2023-12-14T14:32:19;7.60;99.90
9951;DHT22;24074;49.254;6.702;2023-12-14T14:34:45;7.50;99.90
9951;DHT22;24074;49.254;6.702;2023-12-14T14:37:10;7.50;99.90
9951;DHT22;24074;49.254;6.702;2023-12-14T14:39:36;7.50;99.90
9951;DHT22;24074;49.254;6.702;2023-12-14T14:42:04;7.50;99.90
9951;DHT22;24074;49.254;6.702;2023-12-14T14:44:30;7.40;99.90
9951;DHT22;24074;49.254;6.702;2023-12-14T14:46:56;7.30;99.90
9951;DHT22;24074;49.254;6.702;2023-12-14T14:49:21;7.30;99.90
9951;DHT22;24074;49.254;6.702;2023-12-14T14:51:47;7.20;99.90
9951;DHT22;24074;49.254;6.702;2023-12-14T14:54:12;7.10;99.90
9951;DHT22;24074;49.254;6.702;2023-12-14T14:56:39;7.10;99.90
9951;DHT22;24074;49.254;6.702;2023-12-14T14:59:05;7.10;99.90
9951;DHT22;24074;49.254;6.702;2023-12-14T15:01:32;7.00;99.90
9951;DHT22;24074;49.254;6.702;2023-12-14T15:03:57;7.00;99.90
9951;DHT22;24074;49.254;6.702;2023-12-14T15:06:23;7.00;99.90
9951;DHT22;24074;49.254;6.702;2023-12-14T15:08:48;7.00;99.90
9951;DHT22;24074;49.254;6.702;2023-12-14T15:11:14;7.00;99.90
9951;DHT22;24074;49.254;6.702;2023-12-14T15:13:39;6.90;99.90
9951;DHT22;24074;49.254;6.702;2023-12-14T15:16:06;6.90;99.90
9951;DHT22;24074;49.254;6.702;2023-12-14T15:18:32;6.90;99.90
9951;DHT22;24074;49.254;6.702;2023-12-14T15:20:59;7.00;99.90
9951;DHT22;24074;49.254;6.702;2023-12-14T15:23:24;6.90;99.90
9951;DHT22;24074;49.254;6.702;2023-12-14T15:25:50;6.90;99.90
9951;DHT22;24074;49.254;6.702;2023-12-14T15:28:15;6.90;99.90
9951;DHT22;24074;49.254;6.702;2023-12-14T15:30:41;6.90;99.90
9951;DHT22;24074;49.254;6.702;2023-12-14T15:33:06;6.80;99.90
9951;DHT22;24074;49.254;6.702;2023-12-14T15:35:32;6.80;99.90
9951;DHT22;24074;49.254;6.702;2023-12-14T15:37:57;6.80;99.90
9951;DHT22;24074;49.254;6.702;2023-12-14T15:40:26;6.70;99.90
9951;DHT22;24074;49.254;6.702;2023-12-14T15:42:51;6.60;99.90
9951;DHT22;24074;49.254;6.702;2023-12-14T15:45:20;6.60;99.90
9951;DHT22;24074;49.254;6.702;2023-12-14T15:47:46;6.60;99.90
9951;DHT22;24074;49.254;6.702;2023-12-14T15:50:12;6.60;99.90
9951;DHT22;24074;49.254;6.702;2023-12-14T15:52:38;6.60;99.90
9951;DHT22;24074;49.254;6.702;2023-12-14T15:55:04;6.60;99.90
9951;DHT22;24074;49.254;6.702;2023-12-14T15:57:32;6.60;99.90
9951;DHT22;24074;49.254;6.702;2023-12-14T15:59:57;6.50;99.90
9951;DHT22;24074;49.254;6.702;2023-12-14T16:02:23;6.50;99.90